createdAt,value
2022-10-19T00:01:56.667Z,9.37
2022-10-19T00:04:23.102Z,9.57
2022-10-19T00:06:49.414Z,10.03
2022-10-19T00:09:18.564Z,9.53
2022-10-19T00:11:47.486Z,10.00
2022-10-19T00:14:17.714Z,9.23
2022-10-19T00:16:45.744Z,9.67
2022-10-19T00:19:15.941Z,9.47
2022-10-19T00:21:42.398Z,10.17
2022-10-19T00:24:08.654Z,9.97
2022-10-19T00:26:35.250Z,10.10
2022-10-19T00:29:01.629Z,9.43
2022-10-19T00:31:28.009Z,10.27
2022-10-19T00:33:57.068Z,9.73
2022-10-19T00:36:27.663Z,9.33
2022-10-19T00:38:55.152Z,9.33
2022-10-19T00:41:27.877Z,8.87
2022-10-19T00:48:27.336Z,8.70
2022-10-19T00:50:56.276Z,8.73
2022-10-19T00:53:24.050Z,8.67
2022-10-19T00:55:50.525Z,8.83
2022-10-19T00:58:16.679Z,7.93
2022-10-19T01:00:43.115Z,9.10
2022-10-19T01:03:11.176Z,8.50
2022-10-19T01:05:38.517Z,8.03
2022-10-19T01:08:06.997Z,7.73
2022-10-19T01:11:01.206Z,8.43
2022-10-19T01:13:43.265Z,8.13
2022-10-19T01:16:44.360Z,8.07
2022-10-19T01:19:35.234Z,8.67
2022-10-19T01:22:22.092Z,8.73
2022-10-19T01:25:33.575Z,7.97
2022-10-19T01:27:59.804Z,7.87
2022-10-19T01:30:41.076Z,7.40
2022-10-19T01:33:21.228Z,7.13
2022-10-19T01:36:13.785Z,8.57
2022-10-19T01:38:51.796Z,7.50
2022-10-19T01:41:47.078Z,7.67
2022-10-19T01:44:21.563Z,7.43
2022-10-19T01:47:04.223Z,6.63
2022-10-19T01:49:49.454Z,7.23
2022-10-19T01:52:19.955Z,6.60
2022-10-19T01:54:53.834Z,7.03
2022-10-19T01:57:27.777Z,6.53
2022-10-19T01:59:56.864Z,7.00
2022-10-19T02:02:26.268Z,6.40
2022-10-19T02:04:54.676Z,7.07
2022-10-19T02:07:22.206Z,6.77
2022-10-19T02:09:48.686Z,6.60
2022-10-19T02:12:16.166Z,6.10
2022-10-19T02:14:49.155Z,6.27
2022-10-19T02:17:20.426Z,6.20
2022-10-19T02:19:46.963Z,6.53
2022-10-19T02:22:13.506Z,5.83
2022-10-19T02:24:40.519Z,5.70
2022-10-19T02:27:08.014Z,5.77
2022-10-19T02:29:36.490Z,5.93
2022-10-19T02:32:03.823Z,5.23
2022-10-19T02:34:30.941Z,5.67
2022-10-19T02:36:57.429Z,5.83
2022-10-19T02:39:24.222Z,5.73
2022-10-19T02:42:18.655Z,5.70
2022-10-19T02:45:07.518Z,7.00
2022-10-19T02:47:38.065Z,5.37
2022-10-19T02:50:07.212Z,5.20
2022-10-19T02:52:35.618Z,6.10
2022-10-19T02:55:01.966Z,5.80
2022-10-19T02:57:28.237Z,5.43
2022-10-19T02:59:54.606Z,5.60
2022-10-19T03:02:20.718Z,5.50
2022-10-19T03:07:20.303Z,5.73
2022-10-19T03:09:47.060Z,5.37
2022-10-19T03:12:13.826Z,5.20
2022-10-19T03:14:40.310Z,4.30
2022-10-19T03:17:06.510Z,5.03
2022-10-19T03:19:34.750Z,4.47
2022-10-19T03:22:01.077Z,4.43
2022-10-19T03:24:29.757Z,4.53
2022-10-19T03:26:56.273Z,4.30
2022-10-19T03:29:22.817Z,4.20
2022-10-19T03:31:49.295Z,3.90
2022-10-19T03:34:15.806Z,4.07
2022-10-19T03:36:42.197Z,3.73
2022-10-19T03:39:13.927Z,5.00
2022-10-19T03:41:40.651Z,3.80
2022-10-19T03:44:08.875Z,3.60
2022-10-19T03:46:35.779Z,3.40
2022-10-19T03:49:03.472Z,3.73
2022-10-19T03:51:31.024Z,3.33
2022-10-19T03:54:00.050Z,3.53
2022-10-19T03:56:28.409Z,3.30
2022-10-19T03:58:56.496Z,3.63
2022-10-19T04:01:26.282Z,3.50
2022-10-19T04:04:01.140Z,3.23
2022-10-19T04:06:30.395Z,3.63
2022-10-19T04:08:57.404Z,2.60
2022-10-19T04:11:26.864Z,2.87
2022-10-19T04:13:54.858Z,3.50
2022-10-19T04:16:23.141Z,2.40
2022-10-19T04:18:50.180Z,3.87
2022-10-19T04:21:26.182Z,2.53
2022-10-19T04:23:56.550Z,3.23
2022-10-19T04:26:22.720Z,2.60
2022-10-19T04:28:49.190Z,2.40
2022-10-19T04:31:15.568Z,2.40
2022-10-19T04:33:42.229Z,2.33
2022-10-19T04:36:10.776Z,2.73
2022-10-19T04:38:37.904Z,2.40
2022-10-19T04:41:07.265Z,2.40
2022-10-19T04:43:34.335Z,2.60
2022-10-19T04:46:09.303Z,2.30
2022-10-19T04:48:38.092Z,2.27
2022-10-19T04:51:04.605Z,2.63
2022-10-19T04:53:32.391Z,2.00
2022-10-19T04:55:58.755Z,2.23
2022-10-19T04:58:26.429Z,1.90
2022-10-19T05:00:52.650Z,2.27
2022-10-19T05:03:19.382Z,1.97
2022-10-19T05:05:45.521Z,2.57
2022-10-19T05:08:11.922Z,2.10
2022-10-19T05:10:38.218Z,2.17
2022-10-19T05:13:05.028Z,2.23
2022-10-19T05:15:32.264Z,1.97
2022-10-19T05:17:58.970Z,1.77
2022-10-19T05:20:25.356Z,2.00
2022-10-19T05:22:52.011Z,2.57
2022-10-19T05:25:18.379Z,3.07
2022-10-19T05:27:45.367Z,1.60
2022-10-19T05:30:13.666Z,1.90
2022-10-19T05:32:40.307Z,1.50
2022-10-19T05:35:06.731Z,1.97
2022-10-19T05:37:33.536Z,1.90
2022-10-19T05:40:02.578Z,2.60
2022-10-19T05:42:29.048Z,2.17
2022-10-19T05:44:55.469Z,1.70
2022-10-19T05:47:21.824Z,1.90
2022-10-19T05:49:47.984Z,2.20
2022-10-19T05:52:16.939Z,2.00
2022-10-19T05:54:43.125Z,1.67
2022-10-19T05:57:09.601Z,2.30
2022-10-19T05:59:35.828Z,3.73
2022-10-19T06:02:02.942Z,1.97
2022-10-19T06:04:29.222Z,1.60
2022-10-19T06:06:55.812Z,1.83
2022-10-19T06:09:22.424Z,1.97
2022-10-19T06:11:48.942Z,1.43
2022-10-19T06:14:15.857Z,4.30
2022-10-19T06:16:45.086Z,2.47
2022-10-19T06:19:11.392Z,1.33
2022-10-19T06:21:40.655Z,1.50
2022-10-19T06:24:10.714Z,1.60
2022-10-19T06:26:37.256Z,1.40
2022-10-19T06:29:04.214Z,1.60
2022-10-19T06:31:33.366Z,1.50
2022-10-19T06:34:00.118Z,1.70
2022-10-19T06:36:29.122Z,1.57
2022-10-19T06:38:59.300Z,1.20
2022-10-19T06:41:25.826Z,1.63
2022-10-19T06:43:53.653Z,1.60
2022-10-19T06:46:22.625Z,1.47
2022-10-19T06:48:57.648Z,1.93
2022-10-19T06:51:25.707Z,1.67
2022-10-19T06:53:56.531Z,1.27
2022-10-19T06:56:25.523Z,1.20
2022-10-19T06:58:52.093Z,1.93
2022-10-19T07:01:18.605Z,1.50
2022-10-19T07:03:45.000Z,1.40
2022-10-19T07:06:12.875Z,1.40
2022-10-19T07:08:41.035Z,1.23
2022-10-19T07:11:15.449Z,1.27
2022-10-19T07:13:41.947Z,1.33
2022-10-19T07:16:17.779Z,1.53
2022-10-19T07:18:52.210Z,1.20
2022-10-19T07:21:20.576Z,1.30
2022-10-19T07:23:47.837Z,1.17
2022-10-19T07:26:22.502Z,0.90
2022-10-19T07:28:49.820Z,1.60
2022-10-19T07:31:22.285Z,1.47
2022-10-19T07:33:59.408Z,1.23
2022-10-19T07:36:27.485Z,1.10
2022-10-19T07:38:54.760Z,1.27
2022-10-19T07:41:23.178Z,1.53
2022-10-19T07:43:50.565Z,1.30
2022-10-19T07:46:24.573Z,1.57
2022-10-19T07:48:51.392Z,1.33
2022-10-19T07:51:19.382Z,2.17
2022-10-19T07:53:45.746Z,1.53
2022-10-19T07:56:15.413Z,1.70
2022-10-19T07:58:42.326Z,1.50
2022-10-19T08:01:12.049Z,1.67
2022-10-19T08:06:25.589Z,1.50
2022-10-19T08:08:52.820Z,1.33
2022-10-19T08:11:28.556Z,1.33
2022-10-19T08:13:58.151Z,1.33
2022-10-19T08:16:32.268Z,1.30
2022-10-19T08:19:04.826Z,1.30
2022-10-19T08:21:31.309Z,1.07
2022-10-19T08:23:58.265Z,1.40
2022-10-19T08:26:29.103Z,1.80
2022-10-19T08:29:04.818Z,1.47
2022-10-19T08:31:31.606Z,1.43
2022-10-19T08:33:58.250Z,1.53
2022-10-19T08:36:25.402Z,1.50
2022-10-19T08:38:51.684Z,1.43
2022-10-19T08:41:24.112Z,1.67
2022-10-19T08:44:21.232Z,3.27
2022-10-19T08:47:13.336Z,2.13
2022-10-19T08:49:41.073Z,1.70
2022-10-19T08:52:17.152Z,1.23
2022-10-19T08:54:49.124Z,1.30
2022-10-19T08:57:31.894Z,1.20
2022-10-19T09:00:18.527Z,1.47
2022-10-19T09:03:03.593Z,1.47
2022-10-19T09:05:46.027Z,1.20
2022-10-19T09:08:17.616Z,1.20
2022-10-19T09:10:48.438Z,2.27
2022-10-19T09:13:41.486Z,1.20
2022-10-19T09:16:20.593Z,1.30
2022-10-19T09:18:48.816Z,1.33
2022-10-19T09:21:25.831Z,1.23
2022-10-19T09:24:11.851Z,1.07
2022-10-19T09:26:57.453Z,1.60
2022-10-19T09:29:39.761Z,1.00
2022-10-19T09:32:13.763Z,1.00
2022-10-19T09:34:45.587Z,1.37
2022-10-19T09:37:18.832Z,1.43
2022-10-19T09:39:54.078Z,1.53
2022-10-19T09:42:32.567Z,1.20
2022-10-19T09:45:01.445Z,1.00
2022-10-19T09:47:38.432Z,1.00
2022-10-19T09:50:16.955Z,1.40
2022-10-19T09:52:45.483Z,1.10
2022-10-19T09:55:24.329Z,1.27
2022-10-19T09:57:59.035Z,1.10
2022-10-19T10:00:34.661Z,1.40
2022-10-19T10:03:01.072Z,1.37
2022-10-19T10:05:38.872Z,0.93
2022-10-19T10:08:14.324Z,1.00
2022-10-19T10:10:48.394Z,1.13
2022-10-19T10:13:23.165Z,1.10
2022-10-19T10:15:55.807Z,1.10
2022-10-19T10:18:24.266Z,1.00
2022-10-19T10:20:58.655Z,1.30
2022-10-19T10:23:28.208Z,1.10
2022-10-19T10:25:56.723Z,1.00
2022-10-19T10:28:28.688Z,2.03
2022-10-19T10:30:59.590Z,1.23
2022-10-19T10:33:40.743Z,1.00
2022-10-19T10:36:11.920Z,1.10
2022-10-19T10:38:46.367Z,1.23
2022-10-19T10:41:19.507Z,1.30
2022-10-19T10:43:54.494Z,1.20
2022-10-19T10:46:26.001Z,1.20
2022-10-19T10:49:07.604Z,0.83
2022-10-19T10:51:39.746Z,1.50
2022-10-19T10:54:17.676Z,1.47
2022-10-19T10:56:59.349Z,1.10
2022-10-19T10:59:51.179Z,1.00
2022-10-19T11:02:36.655Z,1.20
2022-10-19T11:05:22.229Z,1.33
2022-10-19T11:07:53.950Z,1.13
2022-10-19T11:10:29.451Z,0.90
2022-10-19T11:13:20.842Z,1.83
2022-10-19T11:15:56.981Z,1.07
2022-10-19T11:18:36.336Z,1.17
2022-10-19T11:21:21.056Z,0.90
2022-10-19T11:24:01.612Z,0.80
2022-10-19T11:26:40.073Z,0.63
2022-10-19T11:29:18.499Z,1.00
2022-10-19T11:31:51.102Z,1.13
2022-10-19T11:34:37.831Z,0.70
2022-10-19T11:37:50.260Z,1.03
2022-10-19T11:40:45.800Z,0.60
2022-10-19T11:43:47.736Z,0.40
2022-10-19T11:46:23.167Z,0.40
2022-10-19T11:49:20.379Z,0.70
2022-10-19T11:51:51.343Z,0.70
2022-10-19T11:54:35.967Z,0.60
2022-10-19T11:57:18.830Z,0.60
2022-10-19T12:00:03.832Z,0.93
2022-10-19T12:02:49.578Z,2.23
2022-10-19T12:05:15.966Z,1.77
2022-10-19T12:08:01.007Z,2.40
2022-10-19T12:10:59.149Z,1.50
2022-10-19T12:13:34.262Z,0.57
2022-10-19T12:16:01.358Z,0.63
2022-10-19T12:18:43.056Z,0.70
2022-10-19T12:21:24.100Z,0.73
2022-10-19T12:23:51.462Z,1.00
2022-10-19T12:26:20.985Z,1.80
2022-10-19T12:28:53.988Z,2.90
2022-10-19T12:31:22.715Z,8.87
2022-10-19T12:34:09.838Z,1.00
2022-10-19T12:37:06.585Z,1.03
2022-10-19T12:39:51.541Z,0.50
2022-10-19T12:42:41.479Z,0.70
2022-10-19T12:45:29.731Z,0.83
2022-10-19T12:48:19.100Z,0.97
2022-10-19T12:50:48.699Z,1.27
2022-10-19T12:56:02.995Z,2.67
2022-10-19T12:58:47.682Z,1.70
2022-10-19T13:01:20.512Z,1.00
2022-10-19T13:03:50.848Z,1.23
2022-10-19T13:06:30.195Z,1.27
2022-10-19T13:09:00.406Z,4.83
2022-10-19T13:11:27.119Z,1.20
2022-10-19T13:13:56.514Z,1.00
2022-10-19T13:16:29.125Z,0.97
2022-10-19T13:18:58.389Z,1.60
2022-10-19T13:21:54.202Z,1.40
2022-10-19T13:24:23.715Z,1.30
2022-10-19T13:27:02.457Z,0.60
2022-10-19T13:29:38.096Z,0.63
2022-10-19T13:32:36.853Z,0.77
2022-10-19T13:35:22.364Z,0.40
2022-10-19T13:38:14.411Z,0.50
2022-10-19T13:40:49.026Z,1.00
2022-10-19T13:43:37.879Z,0.70
2022-10-19T13:46:09.168Z,0.33
2022-10-19T13:48:44.803Z,0.43
2022-10-19T13:51:47.763Z,0.53
2022-10-19T13:54:26.276Z,0.90
2022-10-19T13:57:05.997Z,0.67
2022-10-19T13:59:41.537Z,0.67
2022-10-19T14:02:26.204Z,0.70
2022-10-19T14:05:07.311Z,1.10
2022-10-19T14:07:51.575Z,1.50
2022-10-19T14:10:22.714Z,2.00
2022-10-19T14:12:56.090Z,1.23
2022-10-19T14:15:27.443Z,0.70
2022-10-19T14:17:54.392Z,0.70
2022-10-19T14:20:33.535Z,0.50
2022-10-19T14:23:24.165Z,0.60
2022-10-19T14:25:57.148Z,0.60
2022-10-19T14:28:24.307Z,1.10
2022-10-19T14:30:55.091Z,1.43
2022-10-19T14:33:21.554Z,2.33
2022-10-19T14:35:50.039Z,1.17
2022-10-19T14:38:37.722Z,1.07
2022-10-19T14:41:05.984Z,2.27
2022-10-19T14:43:34.034Z,0.70
2022-10-19T14:46:09.516Z,0.60
2022-10-19T14:48:41.501Z,0.87
2022-10-19T14:51:28.912Z,0.60
2022-10-19T14:53:58.518Z,1.37
2022-10-19T14:56:50.615Z,0.80
2022-10-19T14:59:26.059Z,0.67
2022-10-19T15:01:56.373Z,0.70
2022-10-19T15:04:33.646Z,0.83
2022-10-19T15:07:04.281Z,1.70
2022-10-19T15:09:47.846Z,1.60
2022-10-19T15:12:19.832Z,1.73
2022-10-19T15:14:47.198Z,0.90
2022-10-19T15:17:24.002Z,0.80
2022-10-19T15:19:51.409Z,0.50
2022-10-19T15:22:36.241Z,1.20
2022-10-19T15:25:05.543Z,2.17
2022-10-19T15:27:45.428Z,1.60
2022-10-19T15:30:28.564Z,3.07
2022-10-19T15:33:01.510Z,3.10
2022-10-19T15:35:36.781Z,1.03
2022-10-19T15:38:21.486Z,1.00
2022-10-19T15:40:48.728Z,1.03
2022-10-19T15:43:30.333Z,1.30
2022-10-19T15:46:12.665Z,1.07
2022-10-19T15:48:46.458Z,1.00
2022-10-19T15:51:24.951Z,2.40
2022-10-19T15:53:53.529Z,1.27
2022-10-19T15:56:20.405Z,1.90
2022-10-19T15:58:53.526Z,1.80
2022-10-19T16:01:22.194Z,12.00
2022-10-19T16:03:49.453Z,4.27
2022-10-19T16:06:17.392Z,12.80
2022-10-19T16:08:45.592Z,5.07
2022-10-19T16:11:14.167Z,4.43
2022-10-19T16:13:41.024Z,2.00
2022-10-19T16:16:17.701Z,2.97
2022-10-19T16:18:44.209Z,32.63
2022-10-19T16:21:10.416Z,8.90
2022-10-19T16:23:41.862Z,18.27
2022-10-19T16:26:12.831Z,4.80
2022-10-19T16:28:39.678Z,6.07
2022-10-19T16:31:05.934Z,5.63
2022-10-19T16:33:32.770Z,5.87
2022-10-19T16:35:59.204Z,5.37
2022-10-19T16:38:25.886Z,7.53
2022-10-19T16:40:52.130Z,6.27
2022-10-19T16:43:18.550Z,5.90
2022-10-19T16:45:44.868Z,6.80
2022-10-19T16:48:11.786Z,9.37
2022-10-19T16:50:38.011Z,5.83
2022-10-19T16:53:11.916Z,5.83
2022-10-19T16:55:39.976Z,6.47
2022-10-19T16:58:07.179Z,9.47
2022-10-19T17:00:34.861Z,28.27
2022-10-19T17:03:01.566Z,11.43
2022-10-19T17:05:28.468Z,13.93
2022-10-19T17:07:55.151Z,17.50
2022-10-19T17:10:21.563Z,18.87
2022-10-19T17:12:48.292Z,28.50
2022-10-19T17:15:44.655Z,28.30
2022-10-19T17:18:01.432Z,17.00
2022-10-19T17:20:29.806Z,16.83
2022-10-19T17:22:56.802Z,13.03
2022-10-19T17:25:23.284Z,14.40
2022-10-19T17:27:50.877Z,14.70
2022-10-19T17:30:17.537Z,15.37
2022-10-19T17:32:44.158Z,26.00
2022-10-19T17:35:10.405Z,32.17
2022-10-19T17:37:38.478Z,27.47
2022-10-19T17:40:06.135Z,17.37
2022-10-19T17:42:36.038Z,13.77
2022-10-19T17:45:02.538Z,15.63
2022-10-19T17:47:29.798Z,15.83
2022-10-19T17:49:55.966Z,17.13
2022-10-19T17:52:22.361Z,10.93
2022-10-19T17:55:11.271Z,10.30
2022-10-19T17:57:36.161Z,7.73
2022-10-19T18:00:05.325Z,5.53
2022-10-19T18:02:39.981Z,5.13
2022-10-19T18:05:09.745Z,5.93
2022-10-19T18:07:36.775Z,4.60
2022-10-19T18:10:03.637Z,6.27
2022-10-19T18:12:30.268Z,5.63
2022-10-19T18:14:56.465Z,7.17
2022-10-19T18:17:25.552Z,25.30
2022-10-19T18:19:55.230Z,31.27
2022-10-19T18:22:22.758Z,30.20
2022-10-19T18:24:49.749Z,29.80
2022-10-19T18:27:16.294Z,31.63
2022-10-19T18:29:42.892Z,28.73
2022-10-19T18:32:11.600Z,32.20
2022-10-19T18:34:39.048Z,30.20
2022-10-19T18:37:07.724Z,26.47
2022-10-19T18:39:34.192Z,14.40
2022-10-19T18:42:01.009Z,15.33
2022-10-19T18:44:29.523Z,12.73
2022-10-19T18:46:58.052Z,13.20
2022-10-19T18:49:26.570Z,18.47
2022-10-19T18:51:55.428Z,20.50
2022-10-19T18:54:26.705Z,21.33
2022-10-19T18:56:54.707Z,32.30
2022-10-19T18:59:21.256Z,29.60
2022-10-19T19:01:48.374Z,29.03
2022-10-19T19:04:14.757Z,24.73
2022-10-19T19:06:41.547Z,24.57
2022-10-19T19:09:10.299Z,17.23
2022-10-19T19:11:40.390Z,10.50
2022-10-19T19:14:14.688Z,7.07
2022-10-19T19:16:43.268Z,6.27
2022-10-19T19:19:11.966Z,3.97
2022-10-19T19:21:41.243Z,3.97
2022-10-19T19:24:14.725Z,4.80
2022-10-19T19:26:46.105Z,6.10
2022-10-19T19:29:12.411Z,5.83
2022-10-19T19:31:39.632Z,10.63
2022-10-19T19:34:08.833Z,11.87
2022-10-19T19:36:37.545Z,14.13
2022-10-19T19:39:04.847Z,16.67
2022-10-19T19:41:35.332Z,16.97
2022-10-19T19:44:02.134Z,16.37
2022-10-19T19:46:29.225Z,19.20
2022-10-19T19:49:01.493Z,22.77
2022-10-19T19:51:29.816Z,16.10
2022-10-19T19:53:57.331Z,14.17
2022-10-19T19:56:25.676Z,14.43
2022-10-19T19:58:55.857Z,13.30
2022-10-19T20:01:22.956Z,12.70
2022-10-19T20:03:49.563Z,13.13
2022-10-19T20:06:20.738Z,13.40
2022-10-19T20:08:50.701Z,16.83
2022-10-19T20:11:21.286Z,17.73
2022-10-19T20:13:47.942Z,16.93
2022-10-19T20:16:23.820Z,19.23
2022-10-19T20:18:59.957Z,18.53
2022-10-19T20:21:32.882Z,19.60
2022-10-19T20:24:00.024Z,15.53
2022-10-19T20:26:28.829Z,15.07
2022-10-19T20:28:56.820Z,15.97
2022-10-19T20:31:24.223Z,19.70
2022-10-19T20:33:50.906Z,20.43
2022-10-19T20:36:23.842Z,16.60
2022-10-19T20:38:55.942Z,15.20
2022-10-19T20:41:24.742Z,14.13
2022-10-19T20:43:53.039Z,12.43
2022-10-19T20:46:22.698Z,11.43
2022-10-19T20:48:49.763Z,10.60
2022-10-19T20:51:18.439Z,11.27
2022-10-19T20:53:47.653Z,11.27
2022-10-19T20:56:17.274Z,12.93
2022-10-19T20:58:44.950Z,14.33
2022-10-19T21:01:18.553Z,15.03
2022-10-19T21:03:46.752Z,16.47
2022-10-19T21:06:13.666Z,14.17
2022-10-19T21:08:39.971Z,13.70
2022-10-19T21:11:40.144Z,14.67
2022-10-19T21:14:11.690Z,15.93
2022-10-19T21:16:39.092Z,13.53
2022-10-19T21:19:09.887Z,11.77
2022-10-19T21:21:42.941Z,11.03
2022-10-19T21:24:20.077Z,10.87
2022-10-19T21:26:47.706Z,12.00
2022-10-19T21:29:15.626Z,10.80
2022-10-19T21:31:47.866Z,9.13
2022-10-19T21:34:21.983Z,8.10
2022-10-19T21:36:48.762Z,9.53
2022-10-19T21:39:15.499Z,9.57
2022-10-19T21:41:41.956Z,8.67
2022-10-19T21:44:09.684Z,10.47
2022-10-19T21:46:36.178Z,12.07
2022-10-19T21:49:02.444Z,12.00
2022-10-19T21:51:54.735Z,13.30
2022-10-19T21:54:26.587Z,12.67
2022-10-19T21:56:54.955Z,15.90
2022-10-19T21:59:21.131Z,12.97
2022-10-19T22:01:47.800Z,13.23
2022-10-19T22:04:16.479Z,11.90
2022-10-19T22:06:43.988Z,12.73
2022-10-19T22:09:16.572Z,11.87
2022-10-19T22:11:43.014Z,13.27
2022-10-19T22:14:10.884Z,11.93
2022-10-19T22:16:38.615Z,11.03
2022-10-19T22:19:05.704Z,9.47
2022-10-19T22:21:33.898Z,8.73
2022-10-19T22:24:05.954Z,8.47
2022-10-19T22:26:38.771Z,11.37
2022-10-19T22:29:06.248Z,12.47
2022-10-19T22:31:34.169Z,12.20
2022-10-19T22:34:03.241Z,11.43
2022-10-19T22:36:30.262Z,10.70
2022-10-19T22:38:56.381Z,12.03
2022-10-19T22:42:19.019Z,13.53
2022-10-19T22:45:59.801Z,13.77
2022-10-19T22:49:40.813Z,14.67
2022-10-19T22:52:58.738Z,15.37
2022-10-19T22:55:25.139Z,17.53
2022-10-19T22:57:51.410Z,15.27
2022-10-19T23:00:17.838Z,14.07
2022-10-19T23:02:44.035Z,13.40
2022-10-19T23:05:10.452Z,10.23
2022-10-19T23:07:37.897Z,7.73
2022-10-19T23:10:05.404Z,8.97
2022-10-19T23:12:31.551Z,9.07
2022-10-19T23:14:57.876Z,9.73
2022-10-19T23:17:24.100Z,13.40
2022-10-19T23:19:50.472Z,11.80
2022-10-19T23:22:16.606Z,12.67
2022-10-19T23:24:42.986Z,14.50
2022-10-19T23:27:09.392Z,13.47
2022-10-19T23:29:35.827Z,14.00
2022-10-19T23:32:01.951Z,14.33
2022-10-19T23:34:28.399Z,13.33
2022-10-19T23:36:54.583Z,13.73
2022-10-19T23:39:20.947Z,13.37
2022-10-19T23:41:47.162Z,13.77
2022-10-19T23:44:13.523Z,13.57
2022-10-19T23:46:39.781Z,14.10
2022-10-19T23:49:06.130Z,13.83
2022-10-19T23:51:32.331Z,13.40
2022-10-19T23:53:58.854Z,12.83
2022-10-19T23:56:27.965Z,11.60
2022-10-19T23:58:55.253Z,10.30
